Time;durP1;ratioP1;P1;durP2;ratioP2;P2;SDS_P1;SDS_P2;PMS_P1;PMS_P2;Temp;Humidity;BMP_temperature;BMP_pressure;BME280_temperature;BME280_humidity;BME280_pressure;Samples;Min_cycle;Max_cycle;Signal;HPM_P1;HPM_P2
2022/07/03 04:02:35;;;;;;;6.97;5.25;;;13.40;99.90;;;;;;4989677;28;20051;-73
2022/07/03 04:05:01;;;;;;;5.72;5.18;;;13.40;99.90;;;;;;4994315;28;20424;-73
2022/07/03 04:07:26;;;;;;;7.75;5.93;;;13.40;99.90;;;;;;4995028;28;20034;-73
2022/07/03 04:09:52;;;;;;;6.13;5.53;;;13.40;99.90;;;;;;4997903;28;20507;-73
2022/07/03 04:12:17;;;;;;;7.18;5.35;;;13.40;99.90;;;;;;4980024;28;20392;-73
2022/07/03 04:14:43;;;;;;;6.30;4.70;;;13.40;99.90;;;;;;5006443;23;20038;-71
2022/07/03 04:17:08;;;;;;;5.68;5.18;;;13.50;99.90;;;;;;4995671;28;20121;-71
2022/07/03 04:19:34;;;;;;;5.82;5.22;;;13.40;99.90;;;;;;4997620;28;20035;-71
2022/07/03 04:22:00;;;;;;;6.53;5.32;;;13.50;99.90;;;;;;4997442;28;20047;-71
2022/07/03 04:24:25;;;;;;;7.32;5.25;;;13.50;99.90;;;;;;4997133;28;20046;-71
2022/07/03 04:26:51;;;;;;;6.68;5.57;;;13.50;99.90;;;;;;4997273;28;20031;-71
2022/07/03 04:29:16;;;;;;;7.63;5.40;;;13.50;99.90;;;;;;4997556;28;20070;-71
2022/07/03 04:31:42;;;;;;;8.98;6.00;;;13.50;99.90;;;;;;4997447;28;20081;-71
2022/07/03 04:34:08;;;;;;;6.72;5.50;;;13.50;99.90;;;;;;4996939;28;20040;-71
2022/07/03 04:36:33;;;;;;;7.00;5.15;;;13.50;99.90;;;;;;4997018;28;20035;-70
2022/07/03 04:38:59;;;;;;;10.57;5.78;;;13.60;99.90;;;;;;4995733;28;20078;-71
2022/07/03 04:41:24;;;;;;;8.18;5.40;;;13.60;99.90;;;;;;4997185;28;20042;-71
2022/07/03 04:43:50;;;;;;;8.02;5.60;;;13.60;99.90;;;;;;4996907;28;20038;-71
2022/07/03 04:46:15;;;;;;;8.27;5.28;;;13.60;99.90;;;;;;4997016;28;20043;-71
2022/07/03 04:48:41;;;;;;;6.10;5.50;;;13.60;99.90;;;;;;4995626;28;20026;-71
2022/07/03 04:51:07;;;;;;;6.32;5.72;;;13.60;99.90;;;;;;4997217;28;20039;-71
2022/07/03 04:53:32;;;;;;;5.88;5.20;;;13.70;99.90;;;;;;4996867;28;20403;-71
2022/07/03 04:55:58;;;;;;;7.65;5.35;;;13.70;99.90;;;;;;4996435;28;20035;-71
2022/07/03 04:58:23;;;;;;;7.38;5.10;;;13.70;99.90;;;;;;4996893;28;20030;-71
2022/07/03 05:00:49;;;;;;;8.82;5.43;;;13.70;99.90;;;;;;4996878;28;20050;-72
2022/07/03 05:03:14;;;;;;;7.15;5.15;;;13.70;99.90;;;;;;4996620;28;20039;-71
2022/07/03 05:05:40;;;;;;;6.38;5.10;;;13.70;99.90;;;;;;4996582;28;20043;-71
2022/07/03 05:08:06;;;;;;;6.65;5.00;;;13.90;99.90;;;;;;4996370;28;20038;-70
2022/07/03 05:10:31;;;;;;;6.10;5.50;;;13.80;99.90;;;;;;4995314;28;20039;-71
2022/07/03 05:12:57;;;;;;;6.00;4.85;;;13.90;99.90;;;;;;4995312;28;20034;-71
2022/07/03 05:15:23;;;;;;;7.32;5.18;;;14.00;99.90;;;;;;4996524;28;20050;-71
2022/07/03 05:17:49;;;;;;;6.82;5.07;;;14.10;99.90;;;;;;4996675;28;20042;-71
2022/07/03 05:20:24;;;;;;;9.43;5.25;;;14.20;99.90;;;;;;4995825;28;20069;-73
2022/07/03 05:22:50;;;;;;;5.15;4.65;;;14.30;99.90;;;;;;4996621;28;20063;-74
2022/07/03 05:25:16;;;;;;;5.90;4.63;;;14.50;99.90;;;;;;4996259;28;20531;-73
2022/07/03 05:27:41;;;;;;;7.72;4.85;;;14.60;99.90;;;;;;4996435;28;20090;-73
2022/07/03 05:30:16;;;;;;;6.72;4.93;;;14.70;99.90;;;;;;4996632;28;20501;-73
2022/07/03 05:32:42;;;;;;;5.40;4.38;;;14.80;99.90;;;;;;4996644;28;20059;-73
2022/07/03 05:35:08;;;;;;;5.88;4.50;;;14.90;99.90;;;;;;4996342;28;20082;-74
2022/07/03 05:37:34;;;;;;;4.85;4.35;;;14.90;99.90;;;;;;4995951;28;20031;-73
2022/07/03 05:40:00;;;;;;;6.93;4.28;;;15.00;99.90;;;;;;4996296;28;20412;-73
2022/07/03 05:42:25;;;;;;;4.63;4.10;;;15.20;99.90;;;;;;4996324;28;20492;-74
2022/07/03 05:44:51;;;;;;;5.93;3.65;;;15.30;99.90;;;;;;4996228;28;20370;-73
2022/07/03 05:47:16;;;;;;;4.18;3.78;;;15.40;99.90;;;;;;4996095;28;20038;-73
2022/07/03 05:49:42;;;;;;;5.15;3.30;;;15.50;99.90;;;;;;4996219;28;20045;-74
2022/07/03 05:52:07;;;;;;;4.78;3.50;;;15.60;99.90;;;;;;4996094;28;20031;-73
2022/07/03 05:54:33;;;;;;;5.22;3.67;;;15.70;99.90;;;;;;4995809;28;20042;-73
2022/07/03 05:56:59;;;;;;;5.53;3.30;;;15.80;99.90;;;;;;4994524;28;20126;-74
2022/07/03 05:59:24;;;;;;;3.90;3.50;;;16.00;99.90;;;;;;4996179;28;20213;-74
2022/07/03 06:01:50;;;;;;;3.45;3.15;;;16.10;99.90;;;;;;4996073;28;20489;-74
2022/07/03 06:04:16;;;;;;;3.53;3.10;;;16.20;99.90;;;;;;4995683;28;20158;-73
2022/07/03 06:06:41;;;;;;;4.65;2.95;;;16.30;99.90;;;;;;4994251;28;20082;-73
2022/07/03 06:09:07;;;;;;;3.67;3.20;;;16.40;99.90;;;;;;4995979;28;20467;-74
2022/07/03 06:11:33;;;;;;;5.43;2.95;;;16.50;99.90;;;;;;4996095;28;20105;-74
2022/07/03 06:13:58;;;;;;;4.82;2.97;;;16.70;99.90;;;;;;4993781;28;20058;-74
2022/07/03 06:16:24;;;;;;;4.55;3.05;;;16.80;99.90;;;;;;4996007;28;20039;-72
2022/07/03 06:18:49;;;;;;;3.50;3.20;;;16.90;99.90;;;;;;4994448;28;20031;-72
2022/07/03 06:21:17;;;;;;;3.17;2.97;;;17.00;99.90;;;;;;4995384;28;20051;-73
2022/07/03 06:23:43;;;;;;;3.33;2.60;;;17.20;99.90;;;;;;4995596;28;20041;-72
2022/07/03 06:26:11;;;;;;;3.05;2.60;;;17.30;99.90;;;;;;4995225;28;20515;-72
2022/07/03 06:28:37;;;;;;;3.47;2.50;;;17.40;99.90;;;;;;4995759;28;20595;-72
2022/07/03 06:31:02;;;;;;;3.20;2.90;;;17.60;99.90;;;;;;4995556;28;20043;-72
2022/07/03 06:33:28;;;;;;;4.88;2.97;;;17.70;99.90;;;;;;4995281;28;20440;-72
2022/07/03 06:35:53;;;;;;;3.35;2.47;;;17.90;99.90;;;;;;4995208;28;20419;-72
2022/07/03 06:38:19;;;;;;;5.60;2.92;;;17.90;99.90;;;;;;4995683;28;20041;-70
2022/07/03 06:40:44;;;;;;;2.80;2.50;;;18.10;99.90;;;;;;4995341;28;20065;-72
2022/07/03 06:43:10;;;;;;;3.17;2.65;;;18.20;99.90;;;;;;4994080;28;20035;-71
2022/07/03 06:45:36;;;;;;;3.40;2.50;;;18.40;99.90;;;;;;4995407;28;20058;-71
2022/07/03 06:48:01;;;;;;;3.05;2.47;;;18.50;99.90;;;;;;4995275;28;20382;-72
2022/07/03 06:50:27;;;;;;;4.57;2.60;;;18.60;99.90;;;;;;4995320;28;20039;-72
2022/07/03 06:52:52;;;;;;;3.70;2.20;;;18.70;99.90;;;;;;4995343;28;20023;-75
2022/07/03 06:55:18;;;;;;;3.17;2.63;;;18.90;99.90;;;;;;4995140;28;20039;-72
2022/07/03 06:57:44;;;;;;;3.17;2.40;;;19.10;99.90;;;;;;4995143;28;20035;-72
2022/07/03 07:00:10;;;;;;;3.28;2.22;;;19.30;99.90;;;;;;4995098;28;20074;-71
2022/07/03 07:02:36;;;;;;;2.03;1.85;;;19.50;99.90;;;;;;4995277;28;20493;-73
2022/07/03 07:05:01;;;;;;;2.33;2.10;;;19.70;99.90;;;;;;4994998;28;20054;-71
2022/07/03 07:07:31;;;;;;;6.05;2.10;;;19.90;99.90;;;;;;4994867;28;20039;-74
2022/07/03 07:09:56;;;;;;;2.42;2.22;;;20.10;99.90;;;;;;4994898;28;20362;-72
2022/07/03 07:12:25;;;;;;;2.25;1.90;;;20.40;99.90;;;;;;4995309;28;20031;-75
2022/07/03 07:14:51;;;;;;;2.10;1.85;;;20.50;99.90;;;;;;4994478;28;20516;-72
2022/07/03 07:17:17;;;;;;;2.88;2.00;;;20.70;99.90;;;;;;4994754;28;20059;-76
2022/07/03 07:19:42;;;;;;;2.35;1.92;;;21.00;99.90;;;;;;4993577;28;20035;-77
2022/07/03 07:22:08;;;;;;;3.85;2.03;;;21.10;99.90;;;;;;4993183;28;20043;-72
2022/07/03 07:24:33;;;;;;;2.25;2.00;;;21.30;99.90;;;;;;4993282;28;20035;-77
2022/07/03 07:26:59;;;;;;;2.72;1.70;;;21.50;99.90;;;;;;4994608;28;20497;-72
2022/07/03 07:29:25;;;;;;;2.17;1.95;;;21.70;99.90;;;;;;4994540;28;20042;-72
2022/07/03 07:31:53;;;;;;;3.42;1.60;;;21.80;99.90;;;;;;4992766;28;20503;-72
2022/07/03 07:34:18;;;;;;;2.25;1.77;;;22.00;99.90;;;;;;5009908;28;20035;-74
2022/07/03 07:36:44;;;;;;;4.35;1.80;;;22.30;99.90;;;;;;5014020;28;20086;-72
2022/07/03 07:39:10;;;;;;;1.70;1.60;;;22.60;99.90;;;;;;5010405;28;20038;-72
2022/07/03 07:41:37;;;;;;;1.50;1.38;;;22.90;99.90;;;;;;4987220;28;20054;-81
2022/07/03 07:44:03;;;;;;;2.95;1.60;;;23.20;99.90;;;;;;4986112;28;20031;-74
2022/07/03 07:46:31;;;;;;;2.92;1.63;;;23.50;99.90;;;;;;4983934;28;20047;-79
2022/07/03 07:48:57;;;;;;;1.65;1.40;;;23.70;99.90;;;;;;4979075;28;20043;-73
2022/07/03 07:51:22;;;;;;;1.90;1.70;;;24.00;99.90;;;;;;4979153;28;20038;-74
2022/07/03 07:53:50;;;;;;;4.07;1.70;;;24.20;99.90;;;;;;4977870;28;20039;-72
2022/07/03 07:56:15;;;;;;;2.22;1.50;;;24.30;99.00;;;;;;4978876;28;20035;-76
2022/07/03 07:58:41;;;;;;;1.88;1.60;;;24.50;97.70;;;;;;4977788;28;20032;-77
2022/07/03 08:06:35;;;;;;;1.67;1.20;;;25.00;95.30;;;;;;5016754;28;20050;-75
2022/07/03 08:09:00;;;;;;;1.60;1.48;;;25.20;95.00;;;;;;4982659;28;20035;-74
2022/07/03 08:11:26;;;;;;;2.85;1.30;;;25.30;94.60;;;;;;4977957;28;20039;-74
2022/07/03 08:13:54;;;;;;;1.55;1.40;;;25.40;94.40;;;;;;4977905;28;20477;-74
2022/07/03 08:16:20;;;;;;;1.63;1.40;;;25.70;93.50;;;;;;4978172;28;20059;-74
2022/07/03 08:18:45;;;;;;;1.55;1.30;;;25.70;92.50;;;;;;4979549;28;20106;-75
2022/07/03 08:21:11;;;;;;;1.63;1.30;;;25.70;92.60;;;;;;4997016;28;20042;-76
2022/07/03 08:23:39;;;;;;;2.08;1.40;;;25.70;92.60;;;;;;5003091;28;20134;-76
2022/07/03 08:26:05;;;;;;;2.85;1.40;;;25.70;92.20;;;;;;4998513;28;20035;-77
2022/07/03 08:28:31;;;;;;;3.42;1.25;;;25.80;92.40;;;;;;4998181;28;20085;-77
2022/07/03 08:30:56;;;;;;;2.53;1.48;;;25.90;91.50;;;;;;4998513;28;20452;-76
2022/07/03 08:33:22;;;;;;;3.53;1.70;;;26.00;90.60;;;;;;4997948;28;20085;-80
2022/07/03 08:35:47;;;;;;;3.08;1.70;;;26.10;90.90;;;;;;4998296;28;20106;-78
2022/07/03 08:38:13;;;;;;;1.40;1.25;;;26.30;90.80;;;;;;4997639;28;20031;-77
2022/07/03 08:40:42;;;;;;;2.88;1.60;;;26.40;90.60;;;;;;4999222;28;20041;-77
2022/07/03 08:43:08;;;;;;;1.45;1.35;;;26.50;89.40;;;;;;4997457;28;20031;-75
2022/07/03 08:45:38;;;;;;;2.75;1.35;;;26.60;88.50;;;;;;4999192;28;20034;-80
2022/07/03 08:48:08;;;;;;;2.75;1.42;;;26.60;88.90;;;;;;5000604;28;20156;-73
2022/07/03 08:50:45;;;;;;;1.30;1.20;;;26.60;87.80;;;;;;4999817;28;20039;-82
2022/07/03 08:53:14;;;;;;;1.42;1.33;;;26.70;87.60;;;;;;4999007;28;20133;-78
2022/07/03 08:55:39;;;;;;;2.95;1.42;;;26.90;85.90;;;;;;4998375;28;20393;-75
2022/07/03 08:58:08;;;;;;;2.00;1.50;;;26.90;85.50;;;;;;4997369;28;20030;-76
2022/07/03 09:00:34;;;;;;;1.60;1.50;;;27.10;84.90;;;;;;4998973;28;20051;-75
2022/07/03 09:03:04;;;;;;;1.42;1.30;;;27.10;83.20;;;;;;4998883;28;20038;-76
2022/07/03 09:05:30;;;;;;;2.53;1.58;;;27.20;84.60;;;;;;4997210;28;20133;-76
2022/07/03 09:08:01;;;;;;;3.08;1.52;;;27.30;84.90;;;;;;4998720;28;20105;-76
2022/07/03 09:10:28;;;;;;;3.42;1.60;;;27.50;86.00;;;;;;4998441;28;20042;-76
2022/07/03 09:12:56;;;;;;;1.52;1.25;;;27.80;81.50;;;;;;4997134;28;20058;-74
2022/07/03 09:15:24;;;;;;;1.90;1.35;;;27.60;83.10;;;;;;4996629;28;20130;-76
2022/07/03 09:18:06;;;;;;;2.35;1.20;;;27.50;83.20;;;;;;4995610;28;20089;-76
2022/07/03 09:20:34;;;;;;;1.92;1.38;;;27.70;86.10;;;;;;4995541;28;20035;-76
2022/07/03 09:23:20;;;;;;;2.55;1.10;;;27.90;83.00;;;;;;4995708;28;20066;-76
2022/07/03 09:26:01;;;;;;;2.22;1.20;;;28.00;78.50;;;;;;4997524;28;20045;-77
2022/07/03 09:28:52;;;;;;;1.60;1.23;;;28.20;78.60;;;;;;4996101;28;20027;-78
2022/07/03 09:31:26;;;;;;;1.67;1.08;;;28.20;79.30;;;;;;4997285;28;20054;-78
2022/07/03 09:33:57;;;;;;;1.25;1.10;;;28.30;83.30;;;;;;4996161;28;20030;-76
2022/07/03 09:36:39;;;;;;;2.45;1.08;;;28.50;78.70;;;;;;4996795;28;20109;-77
2022/07/03 09:39:30;;;;;;;1.92;0.90;;;28.60;75.40;;;;;;4997671;28;20033;-78
2022/07/03 09:42:07;;;;;;;1.20;1.00;;;28.80;78.90;;;;;;4998105;28;20039;-77
2022/07/03 09:44:45;;;;;;;1.35;0.90;;;29.00;74.10;;;;;;4997678;28;20038;-80
2022/07/03 09:47:18;;;;;;;1.38;1.05;;;29.00;72.80;;;;;;4997498;28;20039;-79
2022/07/03 09:49:56;;;;;;;0.80;0.80;;;28.90;73.20;;;;;;4996654;28;20031;-76
2022/07/03 09:52:32;;;;;;;2.35;1.10;;;29.10;75.90;;;;;;4995156;28;20073;-76
2022/07/03 09:55:10;;;;;;;0.90;0.90;;;29.20;75.40;;;;;;4996555;28;20523;-76
2022/07/03 09:57:45;;;;;;;1.65;0.80;;;29.30;71.00;;;;;;4994827;28;20039;-76
2022/07/03 10:00:15;;;;;;;0.80;0.80;;;29.50;67.80;;;;;;4995884;28;20038;-76
2022/07/03 10:03:01;;;;;;;1.48;1.08;;;29.80;66.60;;;;;;4996604;28;20408;-76
2022/07/03 10:05:38;;;;;;;1.63;0.90;;;29.90;68.20;;;;;;4994639;28;20041;-75
2022/07/03 10:08:15;;;;;;;3.40;0.80;;;30.00;65.70;;;;;;4995043;28;20078;-75
2022/07/03 10:10:49;;;;;;;2.70;0.93;;;29.90;61.80;;;;;;4995407;28;20117;-78
2022/07/03 10:13:15;;;;;;;1.85;0.73;;;29.90;63.20;;;;;;4995033;28;20035;-76
2022/07/03 10:15:44;;;;;;;2.03;0.65;;;29.80;61.70;;;;;;4995678;28;20041;-74
2022/07/03 10:18:12;;;;;;;3.65;1.33;;;29.90;61.30;;;;;;4994496;28;20594;-75
2022/07/03 10:20:46;;;;;;;0.80;0.60;;;29.90;64.20;;;;;;4996057;28;20034;-75
2022/07/03 10:23:13;;;;;;;5.07;0.80;;;30.00;62.00;;;;;;5030962;23;20042;-73
2022/07/03 10:25:43;;;;;;;2.05;0.80;;;29.70;61.40;;;;;;5014726;28;20039;-72
2022/07/03 10:28:13;;;;;;;0.50;0.50;;;29.70;62.50;;;;;;5014520;28;20043;-72
2022/07/03 10:30:39;;;;;;;1.35;0.80;;;29.70;63.50;;;;;;5014835;28;20034;-72
2022/07/03 10:33:05;;;;;;;2.00;0.73;;;29.90;62.90;;;;;;5013451;28;20105;-73
2022/07/03 10:35:36;;;;;;;4.15;0.80;;;29.90;60.80;;;;;;5013456;28;20572;-76
2022/07/03 10:38:02;;;;;;;1.15;0.70;;;29.90;58.80;;;;;;5014087;28;20492;-72
2022/07/03 10:46:25;;;;;;;1.88;0.90;;;30.10;57.50;;;;;;5015060;28;20042;-72
2022/07/03 10:49:02;;;;;;;1.08;0.68;;;30.10;59.80;;;;;;5014809;28;20447;-72
2022/07/03 10:51:30;;;;;;;0.88;0.60;;;30.20;57.10;;;;;;5014782;28;20576;-72
2022/07/03 10:54:19;;;;;;;0.80;0.60;;;30.10;57.20;;;;;;5014495;28;20038;-72
2022/07/03 10:57:02;;;;;;;2.15;0.70;;;30.50;57.80;;;;;;5014313;28;20038;-73
2022/07/03 10:59:43;;;;;;;0.80;0.63;;;30.80;58.00;;;;;;5014377;28;20041;-76
2022/07/03 11:02:23;;;;;;;3.50;0.70;;;31.10;56.30;;;;;;5013940;28;20038;-72
2022/07/03 11:05:03;;;;;;;0.70;0.70;;;31.00;56.90;;;;;;5014452;28;20041;-73
2022/07/03 11:07:33;;;;;;;1.75;1.02;;;30.90;55.80;;;;;;5014160;28;20492;-73
2022/07/03 11:10:14;;;;;;;3.00;1.10;;;30.90;58.80;;;;;;5012901;28;20125;-73
2022/07/03 11:12:56;;;;;;;2.60;0.95;;;30.90;56.00;;;;;;5013185;28;20067;-76
2022/07/03 11:15:33;;;;;;;0.88;0.80;;;31.10;57.80;;;;;;5014881;28;20106;-74
2022/07/03 11:18:07;;;;;;;0.63;0.60;;;31.50;60.70;;;;;;5013779;28;20460;-74
2022/07/03 11:20:36;;;;;;;1.20;0.90;;;31.60;53.20;;;;;;5013271;28;20082;-74
2022/07/03 11:23:17;;;;;;;1.50;0.60;;;31.60;56.10;;;;;;5012611;28;20030;-73
2022/07/03 11:25:47;;;;;;;1.70;0.80;;;31.50;55.60;;;;;;5015973;28;20492;-76
2022/07/03 11:28:31;;;;;;;1.30;0.82;;;31.30;54.50;;;;;;5020020;28;20066;-75
2022/07/03 11:31:15;;;;;;;1.67;0.63;;;31.40;55.30;;;;;;5021083;28;20093;-76
2022/07/03 11:33:48;;;;;;;1.13;0.68;;;31.50;57.60;;;;;;5019108;28;20039;-76
2022/07/03 11:36:17;;;;;;;2.90;0.70;;;31.60;58.10;;;;;;5016416;28;20066;-77
2022/07/03 11:39:09;;;;;;;1.98;0.82;;;31.60;55.40;;;;;;5015928;28;20041;-74
2022/07/03 11:41:35;;;;;;;2.97;0.70;;;31.90;54.80;;;;;;5010119;28;20097;-74
2022/07/03 11:44:05;;;;;;;1.73;0.80;;;31.80;56.30;;;;;;5016598;28;20551;-76
2022/07/03 11:46:38;;;;;;;2.85;1.00;;;31.80;55.00;;;;;;5013968;28;20117;-75
2022/07/03 11:49:25;;;;;;;2.53;0.80;;;31.70;55.10;;;;;;5014155;28;20559;-76
2022/07/03 11:51:59;;;;;;;1.00;0.95;;;31.90;57.50;;;;;;5014328;28;20459;-76
2022/07/03 11:54:26;;;;;;;2.45;0.98;;;31.90;55.10;;;;;;5012615;28;20038;-76
2022/07/03 11:56:52;;;;;;;1.70;0.77;;;32.10;54.70;;;;;;5013556;28;20188;-76
2022/07/03 11:59:18;;;;;;;1.60;0.80;;;32.00;53.60;;;;;;5014415;28;20548;-75
2022/07/03 12:01:45;;;;;;;1.88;0.80;;;31.90;54.60;;;;;;5013991;28;20372;-76
2022/07/03 12:04:22;;;;;;;1.35;0.80;;;32.20;58.20;;;;;;5013923;28;20500;-75
2022/07/03 12:06:49;;;;;;;1.50;0.88;;;32.20;54.80;;;;;;5012524;28;20045;-76
2022/07/03 12:09:26;;;;;;;2.35;0.75;;;31.90;55.20;;;;;;5014177;28;20034;-76
2022/07/03 12:12:11;;;;;;;1.00;0.80;;;32.10;57.80;;;;;;5012512;28;20050;-76
2022/07/03 12:14:39;;;;;;;0.90;0.80;;;32.40;61.60;;;;;;5014204;28;20061;-76
2022/07/03 12:17:06;;;;;;;0.90;0.80;;;32.40;56.10;;;;;;5013743;28;20066;-76
2022/07/03 12:19:31;;;;;;;1.08;0.90;;;32.60;54.30;;;;;;5014067;28;20062;-75
2022/07/03 12:21:57;;;;;;;1.58;0.80;;;32.70;54.70;;;;;;5012836;28;20133;-76
2022/07/03 12:24:23;;;;;;;1.98;0.93;;;32.90;53.50;;;;;;5013945;28;20034;-76
2022/07/03 12:26:48;;;;;;;0.70;0.70;;;32.80;54.00;;;;;;5013574;28;20142;-76
2022/07/03 12:29:16;;;;;;;1.10;0.80;;;32.80;54.80;;;;;;5014091;28;20087;-76
2022/07/03 12:31:48;;;;;;;1.65;1.00;;;32.70;53.20;;;;;;5017141;28;20492;-76
2022/07/03 12:34:16;;;;;;;2.53;1.30;;;32.80;55.10;;;;;;5017104;28;20034;-76
2022/07/03 12:36:58;;;;;;;2.85;0.90;;;32.70;53.20;;;;;;5016985;28;20034;-76
2022/07/03 12:39:41;;;;;;;2.00;0.80;;;32.90;56.00;;;;;;5017175;28;20030;-76
2022/07/03 12:42:20;;;;;;;1.13;0.80;;;33.30;56.60;;;;;;5016935;28;20046;-76
2022/07/03 12:44:57;;;;;;;3.08;0.80;;;33.10;52.10;;;;;;5017046;28;20056;-76
2022/07/03 12:47:23;;;;;;;2.08;0.90;;;32.90;55.30;;;;;;5015363;28;20030;-76
2022/07/03 12:49:56;;;;;;;0.65;0.65;;;32.90;56.00;;;;;;5015362;28;20578;-76
2022/07/03 12:52:22;;;;;;;1.90;0.80;;;33.00;52.80;;;;;;5016634;28;20506;-75
2022/07/03 12:54:47;;;;;;;2.65;1.00;;;33.30;57.40;;;;;;5015397;28;20030;-76
2022/07/03 13:00:17;;;;;;;4.40;0.90;;;33.80;54.70;;;;;;5016981;28;20361;-76
2022/07/03 13:02:48;;;;;;;1.77;0.88;;;33.40;52.20;;;;;;5015050;28;20049;-76
2022/07/03 13:05:22;;;;;;;1.55;0.80;;;33.60;54.10;;;;;;5016505;28;20129;-76
2022/07/03 13:07:49;;;;;;;2.33;0.95;;;33.50;56.20;;;;;;5016436;28;20030;-76
2022/07/03 13:10:17;;;;;;;1.15;0.80;;;33.70;51.90;;;;;;5016852;28;20065;-76
2022/07/03 13:12:57;;;;;;;1.38;0.90;;;33.30;51.40;;;;;;5014655;28;20522;-76
2022/07/03 13:15:29;;;;;;;2.08;0.80;;;33.70;52.70;;;;;;5016280;28;20074;-76
2022/07/03 13:17:54;;;;;;;3.50;1.02;;;34.10;51.20;;;;;;5015934;28;20096;-76
2022/07/03 13:20:31;;;;;;;2.00;1.00;;;34.20;56.80;;;;;;5016634;28;20034;-76
2022/07/03 13:23:02;;;;;;;1.10;0.70;;;34.90;53.10;;;;;;5016019;28;20084;-76
2022/07/03 13:25:29;;;;;;;2.25;0.70;;;35.40;50.70;;;;;;5016505;28;20041;-76
2022/07/03 13:28:13;;;;;;;2.67;1.08;;;35.40;49.80;;;;;;5014793;28;20026;-76
2022/07/03 13:30:41;;;;;;;1.90;0.93;;;35.90;50.80;;;;;;5016352;28;20522;-76
2022/07/03 13:33:07;;;;;;;1.90;0.70;;;36.50;48.60;;;;;;5014676;28;20419;-76
2022/07/03 13:35:33;;;;;;;0.70;0.70;;;36.90;45.80;;;;;;5014660;28;20470;-75
2022/07/03 13:37:59;;;;;;;0.80;0.75;;;36.60;47.50;;;;;;5015835;28;20041;-76
2022/07/03 13:40:25;;;;;;;0.93;0.80;;;36.80;46.90;;;;;;5015429;28;20042;-75
2022/07/03 13:42:50;;;;;;;1.48;0.80;;;37.00;45.70;;;;;;5015952;28;20397;-76
2022/07/03 13:45:16;;;;;;;1.55;1.00;;;37.80;50.00;;;;;;5016222;28;20056;-77
2022/07/03 13:47:42;;;;;;;1.15;0.80;;;38.20;45.40;;;;;;5016104;28;20492;-76
2022/07/03 13:50:08;;;;;;;1.40;0.80;;;38.50;45.60;;;;;;5014791;28;20061;-75
2022/07/03 13:52:34;;;;;;;0.90;0.70;;;38.70;45.10;;;;;;5015646;28;20049;-77
2022/07/03 13:54:59;;;;;;;0.95;0.85;;;38.70;43.00;;;;;;5014565;28;20030;-77
2022/07/03 13:57:25;;;;;;;4.13;1.00;;;39.10;43.40;;;;;;5015823;28;20038;-76
2022/07/03 13:59:50;;;;;;;1.98;1.02;;;39.30;41.90;;;;;;5014631;28;20464;-76
2022/07/03 14:02:16;;;;;;;3.05;1.05;;;38.90;45.10;;;;;;5015578;28;20069;-77
2022/07/03 14:04:42;;;;;;;1.23;0.70;;;38.50;42.10;;;;;;5015793;28;20089;-77
2022/07/03 14:07:07;;;;;;;3.47;0.77;;;38.50;44.30;;;;;;5015520;28;20030;-77
2022/07/03 14:09:33;;;;;;;2.28;1.02;;;38.80;41.20;;;;;;5015488;28;20357;-77
2022/07/03 14:11:59;;;;;;;2.70;0.88;;;38.30;41.40;;;;;;5015277;28;20122;-77
2022/07/03 14:14:25;;;;;;;1.00;0.80;;;38.40;43.00;;;;;;5014172;28;20365;-77
2022/07/03 14:16:51;;;;;;;5.68;0.82;;;39.00;45.60;;;;;;5015423;28;20109;-77
2022/07/03 14:19:17;;;;;;;4.25;0.90;;;38.80;47.00;;;;;;5015931;28;20109;-77
2022/07/03 14:21:42;;;;;;;2.25;1.02;;;39.50;41.90;;;;;;5015607;28;20043;-77
2022/07/03 14:24:09;;;;;;;2.05;1.00;;;40.10;40.50;;;;;;5015583;28;20567;-77
2022/07/03 14:34:47;;;;;;;1.00;0.93;;;40.20;42.90;;;;;;5019659;28;20854;-78
2022/07/03 14:37:18;;;;;;;4.05;0.93;;;41.10;41.00;;;;;;5016444;28;20038;-77
2022/07/03 14:39:46;;;;;;;3.60;1.00;;;41.70;38.30;;;;;;5014250;28;20526;-77
2022/07/03 14:42:12;;;;;;;2.35;1.00;;;41.40;37.10;;;;;;5014359;28;20047;-78
2022/07/03 14:44:37;;;;;;;1.08;0.90;;;41.50;38.60;;;;;;5014734;28;20502;-77
2022/07/03 14:47:03;;;;;;;1.10;1.00;;;41.30;36.70;;;;;;5016188;28;20042;-78
2022/07/03 14:49:29;;;;;;;1.55;1.00;;;41.30;38.40;;;;;;5015557;28;20042;-78
2022/07/03 14:51:54;;;;;;;1.25;0.90;;;41.00;39.90;;;;;;5015258;28;20141;-78
2022/07/03 14:54:20;;;;;;;1.00;0.90;;;41.30;38.70;;;;;;5015982;28;20062;-77
2022/07/03 14:56:53;;;;;;;1.33;0.90;;;41.90;40.20;;;;;;5015511;28;20105;-77
2022/07/03 14:59:41;;;;;;;2.55;1.13;;;42.50;36.80;;;;;;5016924;28;20036;-78
2022/07/03 15:02:20;;;;;;;1.80;1.70;;;43.20;36.00;;;;;;5015887;28;20042;-78
2022/07/03 15:04:55;;;;;;;1.40;1.15;;;43.40;35.10;;;;;;5016969;28;20511;-78
2022/07/03 15:07:23;;;;;;;4.10;1.00;;;43.40;35.50;;;;;;5016165;28;20038;-77
2022/07/03 15:10:05;;;;;;;1.45;0.95;;;43.00;34.20;;;;;;5015338;28;20065;-76
2022/07/03 15:12:32;;;;;;;2.10;1.58;;;43.20;38.10;;;;;;5013715;28;20038;-78
2022/07/03 15:14:59;;;;;;;3.47;1.20;;;42.80;35.60;;;;;;5015113;28;20034;-78
2022/07/03 15:17:26;;;;;;;1.20;1.00;;;42.50;37.60;;;;;;5015319;28;20041;-78
2022/07/03 15:19:52;;;;;;;1.33;0.98;;;43.80;34.80;;;;;;5015112;28;20089;-76
2022/07/03 15:22:19;;;;;;;1.20;1.10;;;44.00;33.70;;;;;;5013327;28;20077;-77
2022/07/03 15:24:50;;;;;;;1.92;0.95;;;43.80;32.90;;;;;;5015513;28;20832;-78
2022/07/03 15:27:20;;;;;;;1.55;1.00;;;43.80;33.60;;;;;;5014719;28;20479;-77
2022/07/03 15:29:45;;;;;;;1.48;1.00;;;44.10;35.50;;;;;;5015055;28;20030;-78
2022/07/03 15:32:15;;;;;;;2.10;1.05;;;43.90;33.90;;;;;;5015406;28;20065;-78
2022/07/03 15:34:41;;;;;;;2.63;1.10;;;43.80;34.50;;;;;;5013244;28;20070;-78
2022/07/03 15:37:26;;;;;;;3.67;0.95;;;44.80;36.90;;;;;;5014931;28;20109;-78
2022/07/03 15:40:05;;;;;;;1.63;1.20;;;45.00;31.30;;;;;;5015035;28;20045;-78
2022/07/03 15:42:52;;;;;;;2.13;0.88;;;44.50;31.30;;;;;;5015187;28;20042;-78
2022/07/03 15:45:42;;;;;;;2.45;1.00;;;43.70;32.00;;;;;;5013415;28;20045;-78
2022/07/03 15:48:31;;;;;;;1.45;1.15;;;43.80;32.80;;;;;;5015345;28;20031;-77
2022/07/03 15:51:08;;;;;;;3.65;1.40;;;43.30;37.30;;;;;;5014431;28;20166;-78
2022/07/03 15:53:38;;;;;;;4.13;1.10;;;44.00;32.20;;;;;;5014954;28;20046;-78
2022/07/03 15:56:05;;;;;;;1.35;1.20;;;44.60;32.40;;;;;;5014119;28;20030;-78
2022/07/03 15:58:35;;;;;;;2.83;1.30;;;45.60;32.10;;;;;;5014824;28;20046;-78
2022/07/03 16:04:21;;;;;;;1.40;1.30;;;46.20;32.30;;;;;;5015332;28;20121;-77
2022/07/03 16:06:47;;;;;;;1.80;1.20;;;46.30;30.50;;;;;;5016733;28;20038;-77
2022/07/03 16:09:13;;;;;;;2.42;1.02;;;45.90;33.80;;;;;;5018420;28;20081;-78
2022/07/03 16:11:38;;;;;;;2.63;1.20;;;45.70;31.70;;;;;;5018334;28;20105;-79
2022/07/03 16:14:05;;;;;;;3.08;0.88;;;45.10;30.00;;;;;;5018486;28;20125;-80
2022/07/03 16:16:31;;;;;;;2.13;1.00;;;45.10;30.50;;;;;;5018097;28;20046;-78
2022/07/03 16:19:01;;;;;;;2.42;1.10;;;44.90;33.40;;;;;;5018061;28;20842;-78
2022/07/03 16:21:29;;;;;;;1.33;0.95;;;44.00;32.50;;;;;;5018504;28;20564;-77
2022/07/03 16:23:55;;;;;;;2.70;1.15;;;43.90;33.30;;;;;;5018860;28;20755;-79
2022/07/03 16:26:22;;;;;;;1.17;1.10;;;44.90;31.50;;;;;;5018481;28;20034;-79
2022/07/03 16:28:48;;;;;;;2.63;1.20;;;44.80;31.50;;;;;;5019077;28;20031;-80
2022/07/03 16:31:17;;;;;;;3.05;1.30;;;44.20;32.20;;;;;;5018095;28;20041;-79
2022/07/03 16:33:48;;;;;;;2.35;1.60;;;43.10;34.50;;;;;;5020540;28;20530;-78
2022/07/03 16:36:20;;;;;;;1.38;1.20;;;41.00;33.80;;;;;;5017931;28;20034;-81
2022/07/03 16:38:52;;;;;;;1.40;1.15;;;39.40;36.30;;;;;;5018488;28;20077;-80
2022/07/03 16:41:21;;;;;;;3.53;1.00;;;37.70;38.90;;;;;;5017992;28;20085;-78
2022/07/03 16:43:50;;;;;;;1.10;0.80;;;35.80;40.70;;;;;;5016068;28;20041;-76
2022/07/03 16:46:17;;;;;;;1.23;0.88;;;34.70;43.30;;;;;;5016215;28;20136;-78
2022/07/03 16:48:49;;;;;;;1.00;0.80;;;33.60;47.20;;;;;;5017524;28;20038;-78
2022/07/03 16:51:17;;;;;;;2.22;0.90;;;32.90;45.50;;;;;;5016332;28;20058;-77
2022/07/03 16:53:43;;;;;;;3.08;0.90;;;32.40;48.90;;;;;;5014798;28;20041;-76
2022/07/03 16:56:11;;;;;;;3.03;1.20;;;32.00;49.30;;;;;;5016402;28;20061;-77
2022/07/03 16:58:38;;;;;;;3.90;0.90;;;31.60;50.00;;;;;;5017055;28;20027;-78
2022/07/03 17:01:09;;;;;;;2.60;0.80;;;31.20;50.20;;;;;;5015491;28;20508;-77
2022/07/03 17:03:36;;;;;;;2.95;1.10;;;30.80;50.70;;;;;;5014054;28;20038;-77
2022/07/03 17:06:03;;;;;;;2.05;0.90;;;30.60;51.10;;;;;;5015832;28;20041;-76
2022/07/03 17:08:29;;;;;;;2.28;0.98;;;30.40;54.50;;;;;;5015175;28;20411;-78
2022/07/03 17:10:55;;;;;;;2.47;1.00;;;30.30;52.80;;;;;;5016295;28;20082;-79
2022/07/03 17:13:21;;;;;;;1.80;1.10;;;29.90;52.90;;;;;;5016385;28;20048;-77
2022/07/03 17:15:49;;;;;;;2.75;0.80;;;29.90;55.00;;;;;;5013341;28;20060;-75
2022/07/03 17:18:15;;;;;;;1.52;0.80;;;29.80;53.90;;;;;;5010915;28;20113;-78
2022/07/03 17:20:43;;;;;;;1.85;0.88;;;29.80;54.50;;;;;;5023324;28;20045;-77
2022/07/03 17:23:15;;;;;;;1.90;1.33;;;29.60;56.30;;;;;;5024847;28;20089;-77
2022/07/03 17:25:53;;;;;;;2.13;0.98;;;29.50;56.00;;;;;;5031275;28;20535;-77